Marlboro, Massachusetts
Current Conditions -  °F | °C
As of 9:56 PM on Thursday 27 Nov 2014 (Local Time) from KBED Reporting Station
Overcast Overcast  
Wind Chill: 22°   Ceiling: 4700
Heat Index: 30°   Visibility: 10mi
Dew Point: 24°   Wind: 8mph
Humidity: 79%   Direction: 320°NW
Pressure: 30"   Gusts: NA
Location:  42.3495°N, 71.5482°W
Report Text: KBED 280256Z 32007KT 10SM OVC047 M01/M04 A3000 RMK AO2 SLP174 T10111044 50003
Loading
Personal Weather Stations






























Interactive Weather Map New forecast layout! Learn more

10-Day Weather Forecast

Advertisements
Track Severe Weather on mobile